createdAt,value
2017-08-09T06:04:48.755Z,15.60
2017-08-09T06:07:40.260Z,15.70
2017-08-09T06:10:10.658Z,15.80
2017-08-09T06:18:57.687Z,15.80
2017-08-09T06:24:42.328Z,15.90
2017-08-09T06:27:13.446Z,15.90
2017-08-09T07:31:58.634Z,17.20
2017-08-09T07:34:31.954Z,17.40
2017-08-09T07:40:01.136Z,17.60
2017-08-09T07:42:34.787Z,17.50
2017-08-09T07:45:05.575Z,17.40
2017-08-09T08:26:39.187Z,17.20
2017-08-09T08:44:24.752Z,17.30
2017-08-09T08:52:44.982Z,17.90
2017-08-09T08:55:16.968Z,18.00
2017-08-09T08:57:47.403Z,17.70
2017-08-09T09:00:19.164Z,17.80
2017-08-09T09:02:48.683Z,17.90
2017-08-09T09:05:22.188Z,17.80
2017-08-09T09:07:53.239Z,17.80
2017-08-09T09:10:37.190Z,17.90
2017-08-09T09:13:06.646Z,18.00
2017-08-09T09:15:35.636Z,18.20
2017-08-09T09:18:04.608Z,18.20
2017-08-09T09:20:34.130Z,18.50
2017-08-09T09:23:04.733Z,18.60
2017-08-09T09:25:33.683Z,18.60
2017-08-09T09:28:03.306Z,18.60
2017-08-09T09:30:32.308Z,18.60
2017-08-09T09:33:01.251Z,18.80
2017-08-09T09:35:30.238Z,18.80
2017-08-09T09:37:59.185Z,19.10
2017-08-09T09:40:28.148Z,19.10
2017-08-09T09:42:57.613Z,19.10
2017-08-09T09:45:26.604Z,19.10
2017-08-09T09:47:55.577Z,19.20
2017-08-09T09:50:24.567Z,19.40
2017-08-09T09:52:53.529Z,19.60
2017-08-09T09:55:22.498Z,19.70
2017-08-09T09:57:51.462Z,19.60
2017-08-09T10:00:20.415Z,19.60
2017-08-09T10:02:49.392Z,19.40
2017-08-09T10:05:18.334Z,19.40
2017-08-09T10:07:47.344Z,19.30
2017-08-09T10:10:16.298Z,19.10
2017-08-09T10:12:45.252Z,19.10
2017-08-09T10:15:14.223Z,19.00
2017-08-09T10:17:43.180Z,19.20
2017-08-09T10:20:12.173Z,19.20
2017-08-09T10:22:41.117Z,19.60
2017-08-09T10:25:10.093Z,20.00
2017-08-09T10:27:39.057Z,20.20
2017-08-09T10:30:08.077Z,19.80
2017-08-09T10:32:37.073Z,19.60
2017-08-09T10:35:06.054Z,19.60
2017-08-09T10:40:14.936Z,20.00
2017-08-09T10:42:56.076Z,20.00
2017-08-09T10:45:27.269Z,20.00
2017-08-09T10:47:56.257Z,20.30
2017-08-09T10:50:25.230Z,20.40
2017-08-09T10:52:54.203Z,20.80
2017-08-09T10:55:23.144Z,21.00
2017-08-09T10:57:52.130Z,21.10
2017-08-09T11:00:21.084Z,21.20
2017-08-09T11:02:50.064Z,21.20
2017-08-09T11:05:19.020Z,21.20
2017-08-09T11:07:47.998Z,21.00
2017-08-09T11:10:17.031Z,20.70
2017-08-09T11:12:46.026Z,20.80
2017-08-09T11:15:14.969Z,20.80
2017-08-09T11:17:43.929Z,21.10
2017-08-09T11:20:12.902Z,21.20
2017-08-09T11:22:41.876Z,21.10
2017-08-09T11:25:10.867Z,21.20
2017-08-09T11:27:39.843Z,21.50
2017-08-09T11:30:08.852Z,21.60
2017-08-09T11:32:37.821Z,21.60
2017-08-09T11:35:06.829Z,21.70
2017-08-09T11:37:35.800Z,22.10
2017-08-09T11:40:04.779Z,22.10
2017-08-09T11:42:33.733Z,22.30
2017-08-09T11:45:02.764Z,22.20
2017-08-09T11:47:32.471Z,22.10
2017-08-09T11:50:01.429Z,22.60
2017-08-09T11:52:31.202Z,22.40
2017-08-09T11:55:00.177Z,22.10
2017-08-09T11:57:29.259Z,22.60
2017-08-09T11:59:58.245Z,22.80
2017-08-09T12:02:27.202Z,22.60
2017-08-09T12:04:56.148Z,22.90
2017-08-09T12:07:25.124Z,23.30
2017-08-09T12:09:54.112Z,22.90
2017-08-09T12:12:23.089Z,23.30
2017-08-09T12:14:52.083Z,23.40
2017-08-09T12:17:21.076Z,23.80
2017-08-09T12:19:50.035Z,23.80
2017-08-09T12:22:19.034Z,23.80
2017-08-09T12:24:48.009Z,24.40
2017-08-09T12:27:16.982Z,24.30
2017-08-09T12:29:45.970Z,24.70
2017-08-09T12:32:14.919Z,25.30
2017-08-09T12:34:43.903Z,25.30
2017-08-09T12:37:12.848Z,25.30
2017-08-09T12:39:41.824Z,25.30
2017-08-09T12:42:10.810Z,24.90
2017-08-09T12:44:39.812Z,25.20
2017-08-09T12:47:08.760Z,25.20
2017-08-09T12:49:38.579Z,25.60
2017-08-09T12:52:07.512Z,25.90
2017-08-09T12:54:36.464Z,26.60
2017-08-09T12:57:05.445Z,27.20
2017-08-09T12:59:34.400Z,26.50
2017-08-09T13:02:03.396Z,25.90
2017-08-09T13:04:32.358Z,26.30
2017-08-09T13:07:01.311Z,26.80
2017-08-09T13:09:30.304Z,26.20
2017-08-09T13:11:59.257Z,25.30
2017-08-09T13:14:28.280Z,25.50
2017-08-09T13:16:57.248Z,25.50
2017-08-09T13:19:26.281Z,25.80
2017-08-09T13:21:55.252Z,24.40
2017-08-09T13:24:24.180Z,24.10
2017-08-09T13:26:53.181Z,24.70
2017-08-09T13:29:22.114Z,25.60
2017-08-09T13:31:51.075Z,26.30
2017-08-09T13:34:20.060Z,26.10
2017-08-09T13:36:49.787Z,26.50
2017-08-09T13:39:18.940Z,25.90
2017-08-09T13:41:47.887Z,25.60
2017-08-09T13:44:16.831Z,25.30
2017-08-09T13:46:45.805Z,25.10
2017-08-09T13:49:14.772Z,25.20
2017-08-09T13:51:43.728Z,25.80
2017-08-09T13:54:12.707Z,26.20
2017-08-09T13:56:41.672Z,26.00
2017-08-09T13:59:10.648Z,26.00
2017-08-09T14:01:39.641Z,26.20
2017-08-09T14:04:08.642Z,25.50
2017-08-09T14:06:37.576Z,24.40
2017-08-09T14:09:06.576Z,24.60
2017-08-09T14:11:35.523Z,25.40
2017-08-09T14:14:04.478Z,25.30
2017-08-09T14:16:33.438Z,24.80
2017-08-09T14:19:02.451Z,25.50
2017-08-09T14:21:31.409Z,26.60
2017-08-09T14:24:01.058Z,27.60
2017-08-09T14:26:30.010Z,27.00
2017-08-09T14:28:59.000Z,27.10
2017-08-09T14:31:27.956Z,28.10
2017-08-09T14:33:56.935Z,27.90
2017-08-09T14:36:25.894Z,28.50
2017-08-09T14:38:54.877Z,28.70
2017-08-09T14:41:23.817Z,27.20
2017-08-09T14:43:52.785Z,27.10
2017-08-09T14:46:21.814Z,25.80
2017-08-09T14:48:51.620Z,25.70
2017-08-09T14:51:21.435Z,25.40
2017-08-09T14:53:50.377Z,25.40
2017-08-09T14:56:19.345Z,25.30
2017-08-09T14:58:48.290Z,24.80
2017-08-09T15:01:17.259Z,24.30
2017-08-09T15:03:46.197Z,23.70
2017-08-09T15:06:15.181Z,23.70
2017-08-09T15:08:44.131Z,23.70
2017-08-09T15:11:13.166Z,23.70
2017-08-09T15:13:42.108Z,23.60
2017-08-09T15:16:11.076Z,23.60
2017-08-09T15:18:40.028Z,23.80
2017-08-09T15:21:09.053Z,23.60
2017-08-09T15:23:38.015Z,23.70
2017-08-09T15:26:06.967Z,23.70
2017-08-09T15:28:35.944Z,23.90
2017-08-09T15:31:04.969Z,23.90
2017-08-09T15:33:34.795Z,23.70
2017-08-09T15:36:03.779Z,23.10
2017-08-09T15:38:32.769Z,23.10
2017-08-09T15:41:01.707Z,22.90
2017-08-09T15:43:30.641Z,22.60
2017-08-09T15:45:59.612Z,22.40
2017-08-09T15:48:28.652Z,22.40
2017-08-09T15:50:57.616Z,22.30
2017-08-09T15:53:26.630Z,22.40
2017-08-09T15:55:55.581Z,22.60
2017-08-09T15:58:24.527Z,22.90
2017-08-09T16:00:53.542Z,23.30
2017-08-09T16:03:22.499Z,23.10
2017-08-09T16:05:51.469Z,23.10
2017-08-09T16:08:20.422Z,23.10
2017-08-09T16:10:49.543Z,23.10
2017-08-09T16:13:18.660Z,23.30
2017-08-09T16:15:47.608Z,23.30
2017-08-09T16:18:16.582Z,23.00
2017-08-09T16:20:46.316Z,23.10
2017-08-09T16:23:15.265Z,23.00
2017-08-09T16:25:44.248Z,22.80
2017-08-09T16:28:13.198Z,22.70
2017-08-09T16:30:42.155Z,22.40
2017-08-09T16:33:11.116Z,22.10
2017-08-09T16:35:40.089Z,21.90
2017-08-09T16:38:09.050Z,21.70
2017-08-09T16:40:38.029Z,21.80
2017-08-09T16:43:06.992Z,21.80
2017-08-09T16:45:35.956Z,22.00
2017-08-09T16:48:04.937Z,22.80
2017-08-09T16:50:33.914Z,23.20
2017-08-09T16:53:02.896Z,23.30
2017-08-09T16:55:31.836Z,23.20
2017-08-09T16:58:00.805Z,22.90
2017-08-09T17:00:29.775Z,22.80
2017-08-09T17:02:58.744Z,22.80
2017-08-09T17:05:27.699Z,22.80
2017-08-09T17:07:56.694Z,22.80
2017-08-09T17:10:25.634Z,22.60
2017-08-09T17:12:54.613Z,22.50
2017-08-09T17:15:23.551Z,22.70
2017-08-09T17:17:52.502Z,22.60
2017-08-09T17:20:21.496Z,22.50
2017-08-09T17:22:50.461Z,22.50
2017-08-09T17:25:19.450Z,22.50
2017-08-09T17:27:48.424Z,22.70
2017-08-09T17:30:17.487Z,22.70
2017-08-09T17:32:46.469Z,22.80
2017-08-09T17:35:15.422Z,22.70
2017-08-09T17:37:44.403Z,22.50
2017-08-09T17:40:13.376Z,22.50
2017-08-09T17:42:42.357Z,22.20
2017-08-09T17:45:11.321Z,22.20
2017-08-09T17:47:40.307Z,22.10
2017-08-09T17:50:09.281Z,22.30
2017-08-09T17:52:38.231Z,22.30
2017-08-09T17:55:07.353Z,22.60
2017-08-09T17:57:36.407Z,22.90
2017-08-09T18:00:05.443Z,22.80
2017-08-09T18:02:34.470Z,22.80
2017-08-09T18:05:03.425Z,22.90
2017-08-09T18:07:32.429Z,23.80
2017-08-09T18:10:01.368Z,23.80
2017-08-09T18:12:30.344Z,24.10
2017-08-09T18:14:59.308Z,23.80
2017-08-09T18:17:28.278Z,23.60
2017-08-09T18:19:57.250Z,23.50
2017-08-09T18:22:26.304Z,23.00
2017-08-09T18:24:55.266Z,22.40
2017-08-09T18:27:24.623Z,22.20
2017-08-09T18:29:53.580Z,22.00
2017-08-09T18:32:22.552Z,21.70
2017-08-09T18:34:51.550Z,21.70
2017-08-09T18:37:20.530Z,21.50
2017-08-09T18:39:49.497Z,21.10
2017-08-09T18:42:18.485Z,20.90
2017-08-09T18:44:47.452Z,20.70
2017-08-09T18:47:16.403Z,20.70
2017-08-09T18:49:45.382Z,20.50
2017-08-09T18:52:14.354Z,20.40
2017-08-09T18:54:43.430Z,20.30
2017-08-09T18:57:12.427Z,20.30
2017-08-09T18:59:41.373Z,20.20
2017-08-09T19:02:10.326Z,20.20
2017-08-09T19:04:39.333Z,19.90
2017-08-09T19:07:08.333Z,19.90
2017-08-09T19:09:37.292Z,19.90
2017-08-09T19:12:06.265Z,19.80
2017-08-09T19:14:35.256Z,19.60
2017-08-09T19:17:04.252Z,19.40
2017-08-09T19:19:33.615Z,19.40
2017-08-09T19:22:02.566Z,19.20
2017-08-09T19:24:31.547Z,19.10
2017-08-09T19:27:00.876Z,19.10
2017-08-09T19:29:30.667Z,19.00
2017-08-09T19:31:59.656Z,19.00
2017-08-09T19:34:28.668Z,18.80
2017-08-09T19:36:57.645Z,18.80
2017-08-09T19:39:26.611Z,18.70
2017-08-09T19:41:55.591Z,18.70
2017-08-09T19:44:25.006Z,18.60
2017-08-09T19:46:53.959Z,18.50
2017-08-09T19:49:22.945Z,18.60
2017-08-09T19:51:51.943Z,18.50
2017-08-09T19:54:21.697Z,18.50
2017-08-09T19:56:50.701Z,18.30
2017-08-09T19:59:19.685Z,18.40
2017-08-09T20:01:48.690Z,18.30
2017-08-09T20:04:17.661Z,18.30
2017-08-09T20:06:46.654Z,18.10
2017-08-09T20:09:15.605Z,18.00
2017-08-09T20:11:44.559Z,17.90
2017-08-09T20:14:13.542Z,18.00
2017-08-09T20:16:42.557Z,17.80
2017-08-09T20:19:11.520Z,17.80
2017-08-09T20:21:40.526Z,17.70
2017-08-09T20:24:09.511Z,17.70
2017-08-09T20:26:38.480Z,17.70
2017-08-09T20:29:07.470Z,17.60
2017-08-09T20:31:36.895Z,17.50
2017-08-09T20:34:05.838Z,17.50
2017-08-09T20:36:34.847Z,17.70
2017-08-09T20:39:03.811Z,17.70
2017-08-09T20:41:32.813Z,17.70
2017-08-09T20:44:01.748Z,17.70
2017-08-09T20:46:31.550Z,17.70
2017-08-09T20:49:00.495Z,17.80
2017-08-09T20:51:29.454Z,17.80
2017-08-09T20:53:58.424Z,17.80
2017-08-09T20:56:27.421Z,17.70
2017-08-09T20:58:56.401Z,17.70
2017-08-09T21:01:25.381Z,17.60
2017-08-09T21:03:54.329Z,17.50
2017-08-09T21:06:23.286Z,17.30
2017-08-09T21:08:52.253Z,17.30
2017-08-09T21:11:21.979Z,17.10
2017-08-09T21:13:51.030Z,17.00
2017-08-09T21:16:20.673Z,17.00
2017-08-09T21:18:49.639Z,17.00
2017-08-09T21:21:19.920Z,16.90
2017-08-09T21:23:49.323Z,16.90
2017-08-09T21:26:19.219Z,16.80
2017-08-09T21:28:49.841Z,16.70
2017-08-09T21:31:20.527Z,16.70
2017-08-09T21:33:51.919Z,16.60
2017-08-09T21:36:21.496Z,16.60
2017-08-09T21:38:50.501Z,16.50
2017-08-09T21:41:19.845Z,16.50
2017-08-09T21:43:48.785Z,16.50
2017-08-09T21:46:17.860Z,16.50
2017-08-09T21:48:46.836Z,16.50
2017-08-09T21:51:15.863Z,16.50
2017-08-09T21:53:44.832Z,16.60
2017-08-09T21:56:13.814Z,16.60
2017-08-09T21:58:42.806Z,16.60
2017-08-09T22:04:34.109Z,16.50
2017-08-09T22:07:03.235Z,16.50
2017-08-09T22:12:10.030Z,16.40
2017-08-09T23:11:55.696Z,15.50
